sensor_id;sensor_type;location;lat;lon;timestamp;temperature;humidity
78619;DHT22;67941;52.506;5.470;2023-11-18T00:00:34;4.50;83.50
78619;DHT22;67941;52.506;5.470;2023-11-18T00:03:03;4.50;83.60
78619;DHT22;67941;52.506;5.470;2023-11-18T00:05:32;4.50;83.60
78619;DHT22;67941;52.506;5.470;2023-11-18T00:08:03;4.50;83.70
78619;DHT22;67941;52.506;5.470;2023-11-18T00:10:33;4.50;83.70
78619;DHT22;67941;52.506;5.470;2023-11-18T00:13:01;4.50;83.80
78619;DHT22;67941;52.506;5.470;2023-11-18T00:15:30;4.50;83.80
78619;DHT22;67941;52.506;5.470;2023-11-18T00:18:00;4.60;83.90
78619;DHT22;67941;52.506;5.470;2023-11-18T00:20:29;4.70;83.80
78619;DHT22;67941;52.506;5.470;2023-11-18T00:22:58;4.70;83.90
78619;DHT22;67941;52.506;5.470;2023-11-18T00:25:33;4.70;83.90
78619;DHT22;67941;52.506;5.470;2023-11-18T00:28:05;4.70;83.90
78619;DHT22;67941;52.506;5.470;2023-11-18T00:30:34;4.80;83.90
78619;DHT22;67941;52.506;5.470;2023-11-18T00:33:03;4.90;83.80
78619;DHT22;67941;52.506;5.470;2023-11-18T00:35:32;4.90;83.80
78619;DHT22;67941;52.506;5.470;2023-11-18T00:38:01;4.90;83.70
78619;DHT22;67941;52.506;5.470;2023-11-18T00:40:33;4.90;83.70
78619;DHT22;67941;52.506;5.470;2023-11-18T00:43:01;4.90;83.70
78619;DHT22;67941;52.506;5.470;2023-11-18T00:45:30;4.90;83.70
78619;DHT22;67941;52.506;5.470;2023-11-18T00:47:59;5.00;83.70
78619;DHT22;67941;52.506;5.470;2023-11-18T00:50:30;5.00;83.70
78619;DHT22;67941;52.506;5.470;2023-11-18T00:53:00;5.00;83.60
78619;DHT22;67941;52.506;5.470;2023-11-18T00:55:28;5.00;83.50
78619;DHT22;67941;52.506;5.470;2023-11-18T00:58:01;5.00;83.40
78619;DHT22;67941;52.506;5.470;2023-11-18T01:00:30;4.90;83.30
78619;DHT22;67941;52.506;5.470;2023-11-18T01:03:00;4.90;83.20
78619;DHT22;67941;52.506;5.470;2023-11-18T01:05:29;4.80;83.20
78619;DHT22;67941;52.506;5.470;2023-11-18T01:07:58;4.70;83.20
78619;DHT22;67941;52.506;5.470;2023-11-18T01:10:28;4.70;83.20
78619;DHT22;67941;52.506;5.470;2023-11-18T01:12:57;4.70;83.20
78619;DHT22;67941;52.506;5.470;2023-11-18T01:15:29;4.70;83.40
78619;DHT22;67941;52.506;5.470;2023-11-18T01:17:58;4.60;83.50
78619;DHT22;67941;52.506;5.470;2023-11-18T01:20:28;4.60;83.60
78619;DHT22;67941;52.506;5.470;2023-11-18T01:22:57;4.70;83.70
78619;DHT22;67941;52.506;5.470;2023-11-18T01:25:26;4.70;83.70
78619;DHT22;67941;52.506;5.470;2023-11-18T01:27:55;4.70;83.70
78619;DHT22;67941;52.506;5.470;2023-11-18T01:30:24;4.70;83.80
78619;DHT22;67941;52.506;5.470;2023-11-18T01:32:55;4.70;83.90
78619;DHT22;67941;52.506;5.470;2023-11-18T01:35:26;4.80;84.00
78619;DHT22;67941;52.506;5.470;2023-11-18T01:37:55;4.90;84.10
78619;DHT22;67941;52.506;5.470;2023-11-18T01:40:24;4.90;84.20
78619;DHT22;67941;52.506;5.470;2023-11-18T01:42:56;5.00;84.30
78619;DHT22;67941;52.506;5.470;2023-11-18T01:45:25;5.10;84.30
78619;DHT22;67941;52.506;5.470;2023-11-18T01:47:57;5.20;84.20
78619;DHT22;67941;52.506;5.470;2023-11-18T01:50:26;5.30;84.20
78619;DHT22;67941;52.506;5.470;2023-11-18T01:52:55;5.30;84.10
78619;DHT22;67941;52.506;5.470;2023-11-18T01:55:27;5.40;84.10
78619;DHT22;67941;52.506;5.470;2023-11-18T01:57:55;5.50;84.20
78619;DHT22;67941;52.506;5.470;2023-11-18T02:00:24;5.50;84.20
78619;DHT22;67941;52.506;5.470;2023-11-18T02:02:53;5.60;84.20
78619;DHT22;67941;52.506;5.470;2023-11-18T02:05:25;5.70;84.20
78619;DHT22;67941;52.506;5.470;2023-11-18T02:07:54;5.70;84.10
78619;DHT22;67941;52.506;5.470;2023-11-18T02:10:23;5.80;84.10
78619;DHT22;67941;52.506;5.470;2023-11-18T02:12:57;5.90;84.10
78619;DHT22;67941;52.506;5.470;2023-11-18T02:15:33;5.90;84.10
78619;DHT22;67941;52.506;5.470;2023-11-18T02:18:04;5.90;84.00
78619;DHT22;67941;52.506;5.470;2023-11-18T02:20:38;5.90;83.90
78619;DHT22;67941;52.506;5.470;2023-11-18T02:23:22;5.90;83.70
78619;DHT22;67941;52.506;5.470;2023-11-18T02:25:54;5.90;83.70
78619;DHT22;67941;52.506;5.470;2023-11-18T02:28:24;5.90;83.70
78619;DHT22;67941;52.506;5.470;2023-11-18T02:30:56;5.80;83.70
78619;DHT22;67941;52.506;5.470;2023-11-18T02:33:31;5.80;83.70
78619;DHT22;67941;52.506;5.470;2023-11-18T02:36:10;5.80;83.70
78619;DHT22;67941;52.506;5.470;2023-11-18T02:38:46;5.80;83.70
78619;DHT22;67941;52.506;5.470;2023-11-18T02:41:19;5.80;83.70
78619;DHT22;67941;52.506;5.470;2023-11-18T02:43:50;5.80;83.80
78619;DHT22;67941;52.506;5.470;2023-11-18T02:46:19;5.80;83.80
78619;DHT22;67941;52.506;5.470;2023-11-18T02:48:50;5.80;83.80
78619;DHT22;67941;52.506;5.470;2023-11-18T02:51:19;5.80;83.80
78619;DHT22;67941;52.506;5.470;2023-11-18T02:53:48;5.70;83.90
78619;DHT22;67941;52.506;5.470;2023-11-18T02:56:20;5.80;83.90
78619;DHT22;67941;52.506;5.470;2023-11-18T02:58:48;5.80;83.90
78619;DHT22;67941;52.506;5.470;2023-11-18T03:01:17;5.80;83.90
78619;DHT22;67941;52.506;5.470;2023-11-18T03:03:46;5.80;83.80
78619;DHT22;67941;52.506;5.470;2023-11-18T03:06:15;5.80;83.90
78619;DHT22;67941;52.506;5.470;2023-11-18T03:08:44;5.80;83.70
78619;DHT22;67941;52.506;5.470;2023-11-18T03:11:13;5.70;83.80
78619;DHT22;67941;52.506;5.470;2023-11-18T03:13:44;5.80;83.70
78619;DHT22;67941;52.506;5.470;2023-11-18T03:16:13;5.70;83.70
78619;DHT22;67941;52.506;5.470;2023-11-18T03:18:43;5.70;83.70
78619;DHT22;67941;52.506;5.470;2023-11-18T03:21:13;5.70;83.60
78619;DHT22;67941;52.506;5.470;2023-11-18T03:23:42;5.60;83.60
78619;DHT22;67941;52.506;5.470;2023-11-18T03:26:11;5.60;83.60
78619;DHT22;67941;52.506;5.470;2023-11-18T03:28:40;5.60;83.70
78619;DHT22;67941;52.506;5.470;2023-11-18T03:31:12;5.60;83.70
78619;DHT22;67941;52.506;5.470;2023-11-18T03:33:41;5.60;83.70
78619;DHT22;67941;52.506;5.470;2023-11-18T03:36:10;5.60;83.70
78619;DHT22;67941;52.506;5.470;2023-11-18T03:38:43;5.60;83.80
78619;DHT22;67941;52.506;5.470;2023-11-18T03:41:13;5.60;83.80
78619;DHT22;67941;52.506;5.470;2023-11-18T03:43:42;5.60;83.90
78619;DHT22;67941;52.506;5.470;2023-11-18T03:46:14;5.60;83.90
78619;DHT22;67941;52.506;5.470;2023-11-18T03:48:44;5.60;83.90
78619;DHT22;67941;52.506;5.470;2023-11-18T03:51:13;5.60;83.90
78619;DHT22;67941;52.506;5.470;2023-11-18T03:53:42;5.70;83.90
78619;DHT22;67941;52.506;5.470;2023-11-18T03:56:16;5.70;83.90
78619;DHT22;67941;52.506;5.470;2023-11-18T03:58:46;5.70;83.90
78619;DHT22;67941;52.506;5.470;2023-11-18T04:01:22;5.70;83.80
78619;DHT22;67941;52.506;5.470;2023-11-18T04:03:53;5.70;83.80
78619;DHT22;67941;52.506;5.470;2023-11-18T04:06:22;5.70;83.70
78619;DHT22;67941;52.506;5.470;2023-11-18T04:08:51;5.70;83.80
78619;DHT22;67941;52.506;5.470;2023-11-18T04:11:20;5.70;83.70
78619;DHT22;67941;52.506;5.470;2023-11-18T04:13:49;5.70;83.80
78619;DHT22;67941;52.506;5.470;2023-11-18T04:16:22;5.70;83.80
78619;DHT22;67941;52.506;5.470;2023-11-18T04:18:51;5.70;83.80
78619;DHT22;67941;52.506;5.470;2023-11-18T04:21:20;5.70;83.90
78619;DHT22;67941;52.506;5.470;2023-11-18T04:23:49;5.70;83.90
78619;DHT22;67941;52.506;5.470;2023-11-18T04:26:18;5.70;84.00
78619;DHT22;67941;52.506;5.470;2023-11-18T04:28:47;5.70;84.00
78619;DHT22;67941;52.506;5.470;2023-11-18T04:31:15;5.80;84.00
78619;DHT22;67941;52.506;5.470;2023-11-18T04:33:47;5.80;84.00
78619;DHT22;67941;52.506;5.470;2023-11-18T04:36:16;5.80;84.00
78619;DHT22;67941;52.506;5.470;2023-11-18T04:38:48;5.80;84.00
78619;DHT22;67941;52.506;5.470;2023-11-18T04:41:17;5.80;84.00
78619;DHT22;67941;52.506;5.470;2023-11-18T04:43:46;5.90;84.00
78619;DHT22;67941;52.506;5.470;2023-11-18T04:46:14;5.90;84.00
78619;DHT22;67941;52.506;5.470;2023-11-18T04:48:47;5.90;84.10
78619;DHT22;67941;52.506;5.470;2023-11-18T04:51:16;5.90;84.00
78619;DHT22;67941;52.506;5.470;2023-11-18T04:53:47;6.00;84.10
78619;DHT22;67941;52.506;5.470;2023-11-18T04:56:16;6.00;84.00
78619;DHT22;67941;52.506;5.470;2023-11-18T04:58:46;6.00;84.00
78619;DHT22;67941;52.506;5.470;2023-11-18T05:01:16;6.00;84.10
78619;DHT22;67941;52.506;5.470;2023-11-18T05:03:47;6.00;84.00
78619;DHT22;67941;52.506;5.470;2023-11-18T05:06:16;6.00;84.00
78619;DHT22;67941;52.506;5.470;2023-11-18T05:08:46;6.10;84.00
78619;DHT22;67941;52.506;5.470;2023-11-18T05:11:15;6.10;84.00
78619;DHT22;67941;52.506;5.470;2023-11-18T05:13:44;6.10;84.00
78619;DHT22;67941;52.506;5.470;2023-11-18T05:16:13;6.10;84.00
78619;DHT22;67941;52.506;5.470;2023-11-18T05:18:42;6.10;84.00
78619;DHT22;67941;52.506;5.470;2023-11-18T05:21:14;6.10;84.00
78619;DHT22;67941;52.506;5.470;2023-11-18T05:23:42;6.20;84.00
78619;DHT22;67941;52.506;5.470;2023-11-18T05:26:11;6.20;84.00
78619;DHT22;67941;52.506;5.470;2023-11-18T05:28:41;6.20;84.00
78619;DHT22;67941;52.506;5.470;2023-11-18T05:31:11;6.20;84.00
78619;DHT22;67941;52.506;5.470;2023-11-18T05:33:39;6.20;84.00
78619;DHT22;67941;52.506;5.470;2023-11-18T05:36:09;6.20;84.00
78619;DHT22;67941;52.506;5.470;2023-11-18T05:38:40;6.20;84.00
78619;DHT22;67941;52.506;5.470;2023-11-18T05:41:09;6.20;84.00
78619;DHT22;67941;52.506;5.470;2023-11-18T05:43:42;6.20;84.00
78619;DHT22;67941;52.506;5.470;2023-11-18T05:46:17;6.20;84.00
78619;DHT22;67941;52.506;5.470;2023-11-18T05:48:51;6.20;84.00
78619;DHT22;67941;52.506;5.470;2023-11-18T05:51:21;6.20;84.00
78619;DHT22;67941;52.506;5.470;2023-11-18T05:53:53;6.30;84.00
78619;DHT22;67941;52.506;5.470;2023-11-18T05:56:22;6.30;84.00
78619;DHT22;67941;52.506;5.470;2023-11-18T05:58:51;6.20;83.90
78619;DHT22;67941;52.506;5.470;2023-11-18T06:01:21;6.30;84.00
78619;DHT22;67941;52.506;5.470;2023-11-18T06:03:53;6.30;84.00
78619;DHT22;67941;52.506;5.470;2023-11-18T06:06:23;6.30;84.00
78619;DHT22;67941;52.506;5.470;2023-11-18T06:08:54;6.30;84.00
78619;DHT22;67941;52.506;5.470;2023-11-18T06:11:25;6.30;84.00
78619;DHT22;67941;52.506;5.470;2023-11-18T06:13:55;6.30;84.00
78619;DHT22;67941;52.506;5.470;2023-11-18T06:16:25;6.30;84.00
78619;DHT22;67941;52.506;5.470;2023-11-18T06:18:54;6.30;84.00
78619;DHT22;67941;52.506;5.470;2023-11-18T06:21:26;6.30;84.00
78619;DHT22;67941;52.506;5.470;2023-11-18T06:23:59;6.30;84.00
78619;DHT22;67941;52.506;5.470;2023-11-18T06:26:29;6.30;83.90
78619;DHT22;67941;52.506;5.470;2023-11-18T06:29:02;6.40;84.00
78619;DHT22;67941;52.506;5.470;2023-11-18T06:31:32;6.40;84.00
78619;DHT22;67941;52.506;5.470;2023-11-18T06:34:01;6.40;84.00
78619;DHT22;67941;52.506;5.470;2023-11-18T06:36:30;6.40;84.00
78619;DHT22;67941;52.506;5.470;2023-11-18T06:39:01;6.40;84.00
78619;DHT22;67941;52.506;5.470;2023-11-18T06:41:33;6.40;84.00
78619;DHT22;67941;52.506;5.470;2023-11-18T06:44:05;6.40;84.00
78619;DHT22;67941;52.506;5.470;2023-11-18T06:46:39;6.40;84.00
78619;DHT22;67941;52.506;5.470;2023-11-18T06:49:08;6.40;84.00
78619;DHT22;67941;52.506;5.470;2023-11-18T06:51:41;6.40;84.00
78619;DHT22;67941;52.506;5.470;2023-11-18T06:54:12;6.40;84.00
78619;DHT22;67941;52.506;5.470;2023-11-18T06:56:43;6.40;84.00
78619;DHT22;67941;52.506;5.470;2023-11-18T06:59:12;6.50;84.00
78619;DHT22;67941;52.506;5.470;2023-11-18T07:01:42;6.40;84.10
78619;DHT22;67941;52.506;5.470;2023-11-18T07:04:11;6.50;84.00
78619;DHT22;67941;52.506;5.470;2023-11-18T07:06:40;6.50;84.00
78619;DHT22;67941;52.506;5.470;2023-11-18T07:09:12;6.50;84.00
78619;DHT22;67941;52.506;5.470;2023-11-18T07:11:43;6.50;84.00
78619;DHT22;67941;52.506;5.470;2023-11-18T07:14:13;6.50;84.00
78619;DHT22;67941;52.506;5.470;2023-11-18T07:16:42;6.50;84.00
78619;DHT22;67941;52.506;5.470;2023-11-18T07:19:11;6.50;84.00
78619;DHT22;67941;52.506;5.470;2023-11-18T07:21:45;6.50;84.00
78619;DHT22;67941;52.506;5.470;2023-11-18T07:24:17;6.50;84.00
78619;DHT22;67941;52.506;5.470;2023-11-18T07:26:46;6.50;84.10
78619;DHT22;67941;52.506;5.470;2023-11-18T07:29:17;6.50;84.00
78619;DHT22;67941;52.506;5.470;2023-11-18T07:31:46;6.60;84.10
78619;DHT22;67941;52.506;5.470;2023-11-18T07:34:15;6.60;84.10
78619;DHT22;67941;52.506;5.470;2023-11-18T07:36:44;6.60;84.10
78619;DHT22;67941;52.506;5.470;2023-11-18T07:39:17;6.60;84.10
78619;DHT22;67941;52.506;5.470;2023-11-18T07:41:50;6.60;84.10
78619;DHT22;67941;52.506;5.470;2023-11-18T07:44:24;6.60;84.10
78619;DHT22;67941;52.506;5.470;2023-11-18T07:46:53;6.70;84.10
78619;DHT22;67941;52.506;5.470;2023-11-18T07:49:22;6.70;84.10
78619;DHT22;67941;52.506;5.470;2023-11-18T07:51:52;6.70;84.10
78619;DHT22;67941;52.506;5.470;2023-11-18T07:54:25;6.70;84.00
78619;DHT22;67941;52.506;5.470;2023-11-18T07:56:53;6.80;84.00
78619;DHT22;67941;52.506;5.470;2023-11-18T07:59:23;6.80;84.10
78619;DHT22;67941;52.506;5.470;2023-11-18T08:01:52;6.80;84.10
78619;DHT22;67941;52.506;5.470;2023-11-18T08:04:19;6.80;84.10
78619;DHT22;67941;52.506;5.470;2023-11-18T08:06:48;6.80;84.10
78619;DHT22;67941;52.506;5.470;2023-11-18T08:09:17;6.90;84.10
78619;DHT22;67941;52.506;5.470;2023-11-18T08:11:54;6.90;84.10
78619;DHT22;67941;52.506;5.470;2023-11-18T08:14:23;6.90;84.10
78619;DHT22;67941;52.506;5.470;2023-11-18T08:16:52;6.90;84.00
78619;DHT22;67941;52.506;5.470;2023-11-18T08:19:22;6.90;84.00
78619;DHT22;67941;52.506;5.470;2023-11-18T08:21:51;7.00;84.10
78619;DHT22;67941;52.506;5.470;2023-11-18T08:24:20;7.00;84.00
78619;DHT22;67941;52.506;5.470;2023-11-18T08:26:49;7.00;84.10
78619;DHT22;67941;52.506;5.470;2023-11-18T08:29:21;7.00;84.10
78619;DHT22;67941;52.506;5.470;2023-11-18T08:32:09;7.00;84.20
78619;DHT22;67941;52.506;5.470;2023-11-18T08:34:38;7.10;84.10
78619;DHT22;67941;52.506;5.470;2023-11-18T08:37:07;7.20;84.10
78619;DHT22;67941;52.506;5.470;2023-11-18T08:39:36;7.20;84.10
78619;DHT22;67941;52.506;5.470;2023-11-18T08:42:06;7.20;84.10
78619;DHT22;67941;52.506;5.470;2023-11-18T08:44:37;7.20;84.20
78619;DHT22;67941;52.506;5.470;2023-11-18T08:47:06;7.20;84.10
78619;DHT22;67941;52.506;5.470;2023-11-18T08:49:38;7.20;84.10
78619;DHT22;67941;52.506;5.470;2023-11-18T08:52:07;7.30;84.10
78619;DHT22;67941;52.506;5.470;2023-11-18T08:54:38;7.40;84.10
78619;DHT22;67941;52.506;5.470;2023-11-18T08:57:27;7.40;84.20
78619;DHT22;67941;52.506;5.470;2023-11-18T09:00:17;7.50;84.10
78619;DHT22;67941;52.506;5.470;2023-11-18T09:03:07;7.50;84.10
78619;DHT22;67941;52.506;5.470;2023-11-18T09:05:44;7.50;84.10
78619;DHT22;67941;52.506;5.470;2023-11-18T09:08:26;7.50;84.00
78619;DHT22;67941;52.506;5.470;2023-11-18T09:10:58;7.50;84.00
78619;DHT22;67941;52.506;5.470;2023-11-18T09:13:27;7.50;84.00
78619;DHT22;67941;52.506;5.470;2023-11-18T09:16:01;7.60;84.10
78619;DHT22;67941;52.506;5.470;2023-11-18T09:18:34;7.60;84.10
78619;DHT22;67941;52.506;5.470;2023-11-18T09:21:05;7.70;84.20
78619;DHT22;67941;52.506;5.470;2023-11-18T09:23:41;7.70;84.20
78619;DHT22;67941;52.506;5.470;2023-11-18T09:26:29;7.80;84.20
78619;DHT22;67941;52.506;5.470;2023-11-18T09:28:58;7.80;84.30
78619;DHT22;67941;52.506;5.470;2023-11-18T09:31:29;7.90;84.20
78619;DHT22;67941;52.506;5.470;2023-11-18T09:33:59;8.00;84.20
78619;DHT22;67941;52.506;5.470;2023-11-18T09:36:32;8.00;84.10
78619;DHT22;67941;52.506;5.470;2023-11-18T09:39:02;8.00;84.00
78619;DHT22;67941;52.506;5.470;2023-11-18T09:41:33;8.00;84.00
78619;DHT22;67941;52.506;5.470;2023-11-18T09:44:02;8.00;84.00
78619;DHT22;67941;52.506;5.470;2023-11-18T09:46:41;8.00;84.00
78619;DHT22;67941;52.506;5.470;2023-11-18T09:49:27;8.10;84.00
78619;DHT22;67941;52.506;5.470;2023-11-18T09:51:59;8.10;83.90
78619;DHT22;67941;52.506;5.470;2023-11-18T09:54:40;8.10;83.90
78619;DHT22;67941;52.506;5.470;2023-11-18T09:57:19;8.10;83.90
78619;DHT22;67941;52.506;5.470;2023-11-18T09:59:58;8.20;84.00
78619;DHT22;67941;52.506;5.470;2023-11-18T10:02:40;8.20;83.90
78619;DHT22;67941;52.506;5.470;2023-11-18T10:05:12;8.20;83.90
78619;DHT22;67941;52.506;5.470;2023-11-18T10:07:46;8.20;83.80
78619;DHT22;67941;52.506;5.470;2023-11-18T10:10:16;8.20;83.70
78619;DHT22;67941;52.506;5.470;2023-11-18T10:12:48;8.20;83.70
78619;DHT22;67941;52.506;5.470;2023-11-18T10:15:19;8.10;83.70
78619;DHT22;67941;52.506;5.470;2023-11-18T10:17:52;8.10;83.70
78619;DHT22;67941;52.506;5.470;2023-11-18T10:20:43;8.10;83.70
78619;DHT22;67941;52.506;5.470;2023-11-18T10:23:14;8.20;83.70
78619;DHT22;67941;52.506;5.470;2023-11-18T10:25:46;8.20;83.70
78619;DHT22;67941;52.506;5.470;2023-11-18T10:28:22;8.20;83.70
78619;DHT22;67941;52.506;5.470;2023-11-18T10:30:53;8.20;83.70
78619;DHT22;67941;52.506;5.470;2023-11-18T10:33:26;8.20;83.60
78619;DHT22;67941;52.506;5.470;2023-11-18T10:35:58;8.20;83.50
78619;DHT22;67941;52.506;5.470;2023-11-18T10:38:29;8.10;83.40
78619;DHT22;67941;52.506;5.470;2023-11-18T10:41:02;8.10;83.30
78619;DHT22;67941;52.506;5.470;2023-11-18T10:43:31;8.00;83.30
78619;DHT22;67941;52.506;5.470;2023-11-18T10:46:05;8.00;83.30
78619;DHT22;67941;52.506;5.470;2023-11-18T10:48:43;8.00;83.40
78619;DHT22;67941;52.506;5.470;2023-11-18T10:51:14;8.00;83.40
78619;DHT22;67941;52.506;5.470;2023-11-18T10:53:48;8.00;83.40
78619;DHT22;67941;52.506;5.470;2023-11-18T10:56:24;8.00;83.30
78619;DHT22;67941;52.506;5.470;2023-11-18T10:58:56;7.90;83.30
78619;DHT22;67941;52.506;5.470;2023-11-18T11:01:30;7.90;83.30
78619;DHT22;67941;52.506;5.470;2023-11-18T11:04:03;7.80;83.30
78619;DHT22;67941;52.506;5.470;2023-11-18T11:06:32;7.80;83.30
78619;DHT22;67941;52.506;5.470;2023-11-18T11:09:02;7.80;83.40
78619;DHT22;67941;52.506;5.470;2023-11-18T11:11:45;7.80;83.40
78619;DHT22;67941;52.506;5.470;2023-11-18T11:14:15;7.80;83.40
78619;DHT22;67941;52.506;5.470;2023-11-18T11:16:50;7.80;83.40
78619;DHT22;67941;52.506;5.470;2023-11-18T11:19:25;7.80;83.30
78619;DHT22;67941;52.506;5.470;2023-11-18T11:22:05;7.80;83.30
78619;DHT22;67941;52.506;5.470;2023-11-18T11:24:57;7.80;83.30
78619;DHT22;67941;52.506;5.470;2023-11-18T11:27:33;7.80;83.40
78619;DHT22;67941;52.506;5.470;2023-11-18T11:30:13;7.80;83.40
78619;DHT22;67941;52.506;5.470;2023-11-18T11:32:48;7.80;83.40
78619;DHT22;67941;52.506;5.470;2023-11-18T11:35:23;7.90;83.40
78619;DHT22;67941;52.506;5.470;2023-11-18T11:37:53;7.90;83.40
78619;DHT22;67941;52.506;5.470;2023-11-18T11:40:29;7.90;83.30
78619;DHT22;67941;52.506;5.470;2023-11-18T11:43:11;7.90;83.30
78619;DHT22;67941;52.506;5.470;2023-11-18T11:45:47;8.00;83.40
78619;DHT22;67941;52.506;5.470;2023-11-18T11:48:18;7.90;83.40
78619;DHT22;67941;52.506;5.470;2023-11-18T11:51:07;8.00;83.40
78619;DHT22;67941;52.506;5.470;2023-11-18T11:53:44;8.00;83.40
78619;DHT22;67941;52.506;5.470;2023-11-18T11:56:14;8.00;83.40
78619;DHT22;67941;52.506;5.470;2023-11-18T11:58:47;8.00;83.40
78619;DHT22;67941;52.506;5.470;2023-11-18T12:01:25;8.00;83.40
78619;DHT22;67941;52.506;5.470;2023-11-18T12:03:58;8.00;83.40
78619;DHT22;67941;52.506;5.470;2023-11-18T12:06:41;8.00;83.40
78619;DHT22;67941;52.506;5.470;2023-11-18T12:09:10;8.00;83.40
78619;DHT22;67941;52.506;5.470;2023-11-18T12:11:45;8.00;83.40
78619;DHT22;67941;52.506;5.470;2023-11-18T12:14:15;8.00;83.50
78619;DHT22;67941;52.506;5.470;2023-11-18T12:17:08;8.00;83.50
78619;DHT22;67941;52.506;5.470;2023-11-18T12:19:40;8.00;83.40
78619;DHT22;67941;52.506;5.470;2023-11-18T12:22:19;8.00;83.40
78619;DHT22;67941;52.506;5.470;2023-11-18T12:28:09;8.10;83.50
78619;DHT22;67941;52.506;5.470;2023-11-18T12:30:42;8.10;83.40
78619;DHT22;67941;52.506;5.470;2023-11-18T12:33:24;8.10;83.40
78619;DHT22;67941;52.506;5.470;2023-11-18T12:42:03;8.10;83.50
78619;DHT22;67941;52.506;5.470;2023-11-18T12:44:40;8.10;83.50
78619;DHT22;67941;52.506;5.470;2023-11-18T12:47:13;8.20;83.50
78619;DHT22;67941;52.506;5.470;2023-11-18T12:49:45;8.20;83.50
78619;DHT22;67941;52.506;5.470;2023-11-18T12:52:20;8.20;83.50
78619;DHT22;67941;52.506;5.470;2023-11-18T12:55:09;8.20;83.60
78619;DHT22;67941;52.506;5.470;2023-11-18T12:57:48;8.20;83.50
78619;DHT22;67941;52.506;5.470;2023-11-18T13:00:20;8.20;83.50
78619;DHT22;67941;52.506;5.470;2023-11-18T13:02:53;8.30;83.50
78619;DHT22;67941;52.506;5.470;2023-11-18T13:05:23;8.30;83.50
78619;DHT22;67941;52.506;5.470;2023-11-18T13:07:56;8.30;83.50
78619;DHT22;67941;52.506;5.470;2023-11-18T13:10:26;8.30;83.60
78619;DHT22;67941;52.506;5.470;2023-11-18T13:12:58;8.30;83.60
78619;DHT22;67941;52.506;5.470;2023-11-18T13:15:27;8.30;83.60
78619;DHT22;67941;52.506;5.470;2023-11-18T13:18:00;8.40;83.60
78619;DHT22;67941;52.506;5.470;2023-11-18T13:20:32;8.40;83.60
78619;DHT22;67941;52.506;5.470;2023-11-18T13:23:02;8.40;83.60
78619;DHT22;67941;52.506;5.470;2023-11-18T13:25:34;8.40;83.60
78619;DHT22;67941;52.506;5.470;2023-11-18T13:28:08;8.40;83.60
78619;DHT22;67941;52.506;5.470;2023-11-18T13:30:40;8.40;83.70
78619;DHT22;67941;52.506;5.470;2023-11-18T13:33:11;8.50;83.70
78619;DHT22;67941;52.506;5.470;2023-11-18T13:35:40;8.50;83.70
78619;DHT22;67941;52.506;5.470;2023-11-18T13:38:09;8.50;83.60
78619;DHT22;67941;52.506;5.470;2023-11-18T13:40:44;8.50;83.60
78619;DHT22;67941;52.506;5.470;2023-11-18T13:43:16;8.50;83.70
78619;DHT22;67941;52.506;5.470;2023-11-18T13:45:51;8.50;83.70
78619;DHT22;67941;52.506;5.470;2023-11-18T13:48:41;8.50;83.70
78619;DHT22;67941;52.506;5.470;2023-11-18T13:51:11;8.50;83.70
78619;DHT22;67941;52.506;5.470;2023-11-18T13:53:42;8.50;83.70
78619;DHT22;67941;52.506;5.470;2023-11-18T13:56:12;8.50;83.70
78619;DHT22;67941;52.506;5.470;2023-11-18T13:58:44;8.50;83.70
78619;DHT22;67941;52.506;5.470;2023-11-18T14:01:13;8.50;83.70
78619;DHT22;67941;52.506;5.470;2023-11-18T14:03:43;8.50;83.80
78619;DHT22;67941;52.506;5.470;2023-11-18T14:06:14;8.50;83.70
78619;DHT22;67941;52.506;5.470;2023-11-18T14:08:43;8.60;83.80
78619;DHT22;67941;52.506;5.470;2023-11-18T14:11:13;8.60;83.70
78619;DHT22;67941;52.506;5.470;2023-11-18T14:13:44;8.60;83.70
78619;DHT22;67941;52.506;5.470;2023-11-18T14:16:13;8.60;83.70
78619;DHT22;67941;52.506;5.470;2023-11-18T14:18:43;8.60;83.60
78619;DHT22;67941;52.506;5.470;2023-11-18T14:21:13;8.50;83.60
78619;DHT22;67941;52.506;5.470;2023-11-18T14:23:42;8.50;83.70
78619;DHT22;67941;52.506;5.470;2023-11-18T14:26:11;8.60;83.60
78619;DHT22;67941;52.506;5.470;2023-11-18T14:28:40;8.60;83.70
78619;DHT22;67941;52.506;5.470;2023-11-18T14:31:12;8.50;83.70
78619;DHT22;67941;52.506;5.470;2023-11-18T14:33:41;8.60;83.70
78619;DHT22;67941;52.506;5.470;2023-11-18T14:36:10;8.60;83.80
78619;DHT22;67941;52.506;5.470;2023-11-18T14:38:39;8.60;83.80
78619;DHT22;67941;52.506;5.470;2023-11-18T14:41:07;8.60;83.70
78619;DHT22;67941;52.506;5.470;2023-11-18T14:43:36;8.60;83.80
78619;DHT22;67941;52.506;5.470;2023-11-18T14:46:07;8.60;83.70
78619;DHT22;67941;52.506;5.470;2023-11-18T14:48:40;8.60;83.80
78619;DHT22;67941;52.506;5.470;2023-11-18T14:51:09;8.60;83.90
78619;DHT22;67941;52.506;5.470;2023-11-18T14:53:38;8.60;83.80
78619;DHT22;67941;52.506;5.470;2023-11-18T14:56:09;8.60;83.90
78619;DHT22;67941;52.506;5.470;2023-11-18T14:58:38;8.60;83.90
78619;DHT22;67941;52.506;5.470;2023-11-18T15:01:07;8.60;83.90
78619;DHT22;67941;52.506;5.470;2023-11-18T15:03:39;8.70;83.80
78619;DHT22;67941;52.506;5.470;2023-11-18T15:06:08;8.60;83.80
78619;DHT22;67941;52.506;5.470;2023-11-18T15:08:38;8.60;83.80
78619;DHT22;67941;52.506;5.470;2023-11-18T15:11:07;8.60;83.80
78619;DHT22;67941;52.506;5.470;2023-11-18T15:13:40;8.60;83.80
78619;DHT22;67941;52.506;5.470;2023-11-18T15:16:09;8.60;83.90
78619;DHT22;67941;52.506;5.470;2023-11-18T15:18:40;8.70;83.80
78619;DHT22;67941;52.506;5.470;2023-11-18T15:21:12;8.70;83.90
78619;DHT22;67941;52.506;5.470;2023-11-18T15:23:41;8.60;83.90
78619;DHT22;67941;52.506;5.470;2023-11-18T15:26:11;8.70;83.90
78619;DHT22;67941;52.506;5.470;2023-11-18T15:28:40;8.70;83.90
78619;DHT22;67941;52.506;5.470;2023-11-18T15:31:09;8.70;83.80
78619;DHT22;67941;52.506;5.470;2023-11-18T15:33:41;8.70;83.70
78619;DHT22;67941;52.506;5.470;2023-11-18T15:36:11;8.70;83.80
78619;DHT22;67941;52.506;5.470;2023-11-18T15:38:40;8.60;83.90
78619;DHT22;67941;52.506;5.470;2023-11-18T15:41:10;8.60;83.80
78619;DHT22;67941;52.506;5.470;2023-11-18T15:43:39;8.60;83.90
78619;DHT22;67941;52.506;5.470;2023-11-18T15:46:09;8.70;83.80
78619;DHT22;67941;52.506;5.470;2023-11-18T15:48:41;8.70;83.80
78619;DHT22;67941;52.506;5.470;2023-11-18T15:51:10;8.60;83.90
78619;DHT22;67941;52.506;5.470;2023-11-18T15:53:40;8.60;84.00
78619;DHT22;67941;52.506;5.470;2023-11-18T15:56:09;8.70;83.80
78619;DHT22;67941;52.506;5.470;2023-11-18T15:58:38;8.70;83.90
78619;DHT22;67941;52.506;5.470;2023-11-18T16:01:07;8.70;84.00
78619;DHT22;67941;52.506;5.470;2023-11-18T16:03:40;8.70;84.00
78619;DHT22;67941;52.506;5.470;2023-11-18T16:06:10;8.70;84.00
78619;DHT22;67941;52.506;5.470;2023-11-18T16:08:39;8.70;83.90
78619;DHT22;67941;52.506;5.470;2023-11-18T16:11:11;8.70;83.90
78619;DHT22;67941;52.506;5.470;2023-11-18T16:13:40;8.70;84.00
78619;DHT22;67941;52.506;5.470;2023-11-18T16:16:10;8.70;84.00
78619;DHT22;67941;52.506;5.470;2023-11-18T16:18:42;8.80;83.90
78619;DHT22;67941;52.506;5.470;2023-11-18T16:21:12;8.70;83.90